Relampago, Texas
Current Conditions -  °F | °C
As of 7:15 AM on Thursday 18 Dec 2014 (Local Time) from KT65 Reporting Station
Overcast Overcast  
Wind Chill: 70°   Ceiling: 1300
Heat Index: 70°   Visibility: 7mi
Dew Point: 67°   Wind: 7mph
Humidity: 88%   Direction: 150°SSE
Pressure: 30.01"   Gusts: NA
Location:  26.1456°N, 97.91°W
Report Text: KT65 181315Z AUTO 15006KT 7SM BKN013 OVC019 21/19 A3001 RMK AO2 T02120192
Loading
Personal Weather Stations






























Interactive Weather Map New forecast layout! Learn more

10-Day Weather Forecast

Advertisements
Track Severe Weather on mobile